Val Marie, Canada
Current Conditions -  °F | °C
As of 2:00 PM on Wednesday 28 Jan 2015 (Local Time) from CYYN Reporting Station
Overcast Overcast  
Wind Chill: 17°   Ceiling: 400
Heat Index: 30°   Visibility: 9mi
Dew Point: 30°   Wind: 22mph
Humidity: 100%   Direction: 310°NW
Pressure: 30.14"   Gusts: 30mph
Location:  49.23°N, 107.73°W
Report Text: CYYN 282000Z AUTO 31019G26KT 9SM OVC004 M01/M01 A3014 RMK SLP242
Loading
Personal Weather Stations






























Interactive Weather Map New forecast layout! Learn more

10-Day Weather Forecast

Advertisements
Track Severe Weather on mobile